createdAt,value
2022-09-28T00:01:07.388Z,53.90
2022-09-28T00:03:34.612Z,53.90
2022-09-28T00:06:04.123Z,53.90
2022-09-28T00:08:31.297Z,53.90
2022-09-28T00:10:58.907Z,53.90
2022-09-28T00:13:25.979Z,53.90
2022-09-28T00:16:01.512Z,53.90
2022-09-28T00:18:29.244Z,53.90
2022-09-28T00:21:05.824Z,53.80
2022-09-28T00:23:33.538Z,53.90
2022-09-28T00:26:04.416Z,53.90
2022-09-28T00:28:31.711Z,54.00
2022-09-28T00:30:59.350Z,54.00
2022-09-28T00:33:26.541Z,54.00
2022-09-28T00:35:59.745Z,54.00
2022-09-28T00:38:30.638Z,54.00
2022-09-28T00:40:58.045Z,54.00
2022-09-28T00:43:25.591Z,54.00
2022-09-28T00:46:19.732Z,54.10
2022-09-28T00:49:07.701Z,54.00
2022-09-28T00:51:37.878Z,54.00
2022-09-28T00:54:07.433Z,54.00
2022-09-28T00:56:38.425Z,54.00
2022-09-28T00:59:07.836Z,54.00
2022-09-28T01:01:35.286Z,53.90
2022-09-28T01:04:04.268Z,53.90
2022-09-28T01:06:36.044Z,53.90
2022-09-28T01:09:08.667Z,53.90
2022-09-28T01:11:40.031Z,53.80
2022-09-28T01:14:11.053Z,53.80
2022-09-28T01:17:06.879Z,53.80
2022-09-28T01:20:06.597Z,53.80
2022-09-28T01:23:13.972Z,53.80
2022-09-28T01:25:58.678Z,53.70
2022-09-28T01:28:29.027Z,53.70
2022-09-28T01:31:04.059Z,53.70
2022-09-28T01:33:46.142Z,53.60
2022-09-28T01:36:23.890Z,53.70
2022-09-28T01:38:56.126Z,53.70
2022-09-28T01:41:26.166Z,53.70
2022-09-28T01:43:57.636Z,53.70
2022-09-28T01:46:30.660Z,53.70
2022-09-28T01:48:59.186Z,53.70
2022-09-28T01:51:39.295Z,53.70
2022-09-28T01:54:12.500Z,53.70
2022-09-28T01:56:57.848Z,53.70
2022-09-28T01:59:28.241Z,53.70
2022-09-28T02:02:11.345Z,53.70
2022-09-28T02:04:58.638Z,53.70
2022-09-28T02:07:47.601Z,53.70
2022-09-28T02:10:24.819Z,53.70
2022-09-28T02:13:17.292Z,53.80
2022-09-28T02:15:56.912Z,53.70
2022-09-28T02:18:24.331Z,53.80
2022-09-28T02:21:01.138Z,54.40
2022-09-28T02:23:31.226Z,53.90
2022-09-28T02:26:05.559Z,53.80
2022-09-28T02:28:32.702Z,53.90
2022-09-28T02:30:59.777Z,53.80
2022-09-28T02:33:34.822Z,53.90
2022-09-28T02:36:03.836Z,53.90
2022-09-28T02:38:32.636Z,53.90
2022-09-28T02:41:18.734Z,53.90
2022-09-28T02:44:03.581Z,53.90
2022-09-28T02:47:05.183Z,53.90
2022-09-28T02:49:47.168Z,53.90
2022-09-28T02:52:47.711Z,53.80
2022-09-28T02:55:38.304Z,53.80
2022-09-28T02:58:45.048Z,53.80
2022-09-28T03:01:48.968Z,53.70
2022-09-28T03:04:36.299Z,53.60
2022-09-28T03:07:21.755Z,53.60
2022-09-28T03:10:13.201Z,53.60
2022-09-28T03:12:41.650Z,53.60
2022-09-28T03:15:28.425Z,53.60
2022-09-28T03:17:57.478Z,53.60
2022-09-28T03:20:25.709Z,53.60
2022-09-28T03:23:19.743Z,53.50
2022-09-28T03:25:39.792Z,53.60
2022-09-28T03:28:06.809Z,53.50
2022-09-28T03:30:33.784Z,53.50
2022-09-28T03:33:02.605Z,53.50
2022-09-28T03:35:29.725Z,53.50
2022-09-28T03:37:57.122Z,53.50
2022-09-28T03:40:24.681Z,53.50
2022-09-28T03:42:51.809Z,53.50
2022-09-28T03:45:18.815Z,53.50
2022-09-28T03:47:47.120Z,53.50
2022-09-28T03:50:14.400Z,53.50
2022-09-28T03:52:41.891Z,53.50
2022-09-28T03:55:09.239Z,53.50
2022-09-28T03:57:36.240Z,53.60
2022-09-28T04:00:04.989Z,53.50
2022-09-28T04:02:32.225Z,53.50
2022-09-28T04:04:59.373Z,53.50
2022-09-28T04:07:30.765Z,53.60
2022-09-28T04:09:58.308Z,53.50
2022-09-28T04:12:25.350Z,53.50
2022-09-28T04:14:52.435Z,53.60
2022-09-28T04:17:19.622Z,53.50
2022-09-28T04:19:47.508Z,53.60
2022-09-28T04:22:14.497Z,53.60
2022-09-28T04:24:43.594Z,53.60
2022-09-28T04:27:30.556Z,53.60
2022-09-28T04:29:57.614Z,53.60
2022-09-28T04:32:24.649Z,53.60
2022-09-28T04:34:52.005Z,53.60
2022-09-28T04:37:19.001Z,53.60
2022-09-28T04:39:48.395Z,53.50
2022-09-28T04:42:16.118Z,53.40
2022-09-28T04:44:43.180Z,53.30
2022-09-28T04:47:10.250Z,53.30
2022-09-28T04:49:38.526Z,53.20
2022-09-28T04:52:07.133Z,53.10
2022-09-28T04:54:34.372Z,53.20
2022-09-28T04:57:02.195Z,53.20
2022-09-28T04:59:29.286Z,53.20
2022-09-28T05:01:56.323Z,53.10
2022-09-28T05:04:26.043Z,53.10
2022-09-28T05:06:53.372Z,53.10
2022-09-28T05:09:20.408Z,53.00
2022-09-28T05:11:50.023Z,53.00
2022-09-28T05:14:17.328Z,53.60
2022-09-28T05:16:45.459Z,53.00
2022-09-28T05:19:12.904Z,52.90
2022-09-28T05:21:40.910Z,52.90
2022-09-28T05:24:08.430Z,53.00
2022-09-28T05:26:36.016Z,53.20
2022-09-28T05:29:03.164Z,53.30
2022-09-28T05:31:30.448Z,53.30
2022-09-28T05:33:57.527Z,53.40
2022-09-28T05:36:26.972Z,53.30
2022-09-28T05:38:54.531Z,53.30
2022-09-28T05:41:21.580Z,53.40
2022-09-28T05:43:48.694Z,53.40
2022-09-28T05:46:16.833Z,53.30
2022-09-28T05:48:44.084Z,53.10
2022-09-28T05:51:11.302Z,53.00
2022-09-28T05:53:38.449Z,53.60
2022-09-28T05:56:05.684Z,53.20
2022-09-28T05:58:32.769Z,53.00
2022-09-28T06:01:00.027Z,52.80
2022-09-28T06:03:28.581Z,52.60
2022-09-28T06:05:55.702Z,52.50
2022-09-28T06:08:22.975Z,52.40
2022-09-28T06:10:50.013Z,52.30
2022-09-28T06:13:18.263Z,52.50
2022-09-28T06:15:46.507Z,52.70
2022-09-28T06:18:15.117Z,52.70
2022-09-28T06:20:42.970Z,52.80
2022-09-28T06:23:12.009Z,52.80
2022-09-28T06:25:39.777Z,52.90
2022-09-28T06:28:12.021Z,52.80
2022-09-28T06:30:39.782Z,52.70
2022-09-28T06:33:10.436Z,52.60
2022-09-28T06:35:37.484Z,52.60
2022-09-28T06:38:04.718Z,52.70
2022-09-28T06:40:33.549Z,52.70
2022-09-28T06:43:14.827Z,52.70
2022-09-28T06:45:42.908Z,52.40
2022-09-28T06:48:11.305Z,52.30
2022-09-28T06:50:40.946Z,52.30
2022-09-28T06:53:10.687Z,52.10
2022-09-28T06:55:42.359Z,51.80
2022-09-28T06:58:15.600Z,51.80
2022-09-28T07:00:42.770Z,51.70
2022-09-28T07:03:15.805Z,51.60
2022-09-28T07:05:49.627Z,51.50
2022-09-28T07:08:17.876Z,51.60
2022-09-28T07:10:50.125Z,51.50
2022-09-28T07:13:44.831Z,51.20
2022-09-28T07:16:04.910Z,51.10
2022-09-28T07:18:32.253Z,50.90
2022-09-28T07:21:00.059Z,50.80
2022-09-28T07:23:29.999Z,50.90
2022-09-28T07:25:58.373Z,50.70
2022-09-28T07:28:25.637Z,50.60
2022-09-28T07:30:52.769Z,50.60
2022-09-28T07:33:19.926Z,50.40
2022-09-28T07:35:52.508Z,50.30
2022-09-28T07:38:19.692Z,50.20
2022-09-28T07:41:06.673Z,50.20
2022-09-28T07:43:34.102Z,50.10
2022-09-28T07:46:01.801Z,50.10
2022-09-28T07:48:29.793Z,50.10
2022-09-28T07:50:57.500Z,50.10
2022-09-28T07:53:25.747Z,50.00
2022-09-28T07:56:02.202Z,50.00
2022-09-28T07:58:29.474Z,50.00
2022-09-28T08:00:56.732Z,50.00
2022-09-28T08:03:23.751Z,50.00
2022-09-28T08:05:50.867Z,50.00
2022-09-28T08:08:20.449Z,50.10
2022-09-28T08:10:47.796Z,50.40
2022-09-28T08:13:16.430Z,50.70
2022-09-28T08:15:43.555Z,50.80
2022-09-28T08:18:10.869Z,50.70
2022-09-28T08:20:58.187Z,50.50
2022-09-28T08:23:26.018Z,50.70
2022-09-28T08:25:54.301Z,49.90
2022-09-28T08:28:23.057Z,49.70
2022-09-28T08:30:51.169Z,49.60
2022-09-28T08:33:21.424Z,49.40
2022-09-28T08:35:48.491Z,49.30
2022-09-28T08:38:15.966Z,49.20
2022-09-28T08:40:59.041Z,49.10
2022-09-28T08:43:53.842Z,49.00
2022-09-28T08:46:27.073Z,48.90
2022-09-28T08:49:24.590Z,49.10
2022-09-28T08:52:17.697Z,49.40
2022-09-28T08:55:02.669Z,49.30
2022-09-28T08:58:02.680Z,49.30
2022-09-28T09:00:47.268Z,49.30
2022-09-28T09:03:19.563Z,49.00
2022-09-28T09:06:16.398Z,48.70
2022-09-28T09:09:20.786Z,48.30
2022-09-28T09:12:18.637Z,48.10
2022-09-28T09:15:05.456Z,48.00
2022-09-28T09:17:58.370Z,47.80
2022-09-28T09:21:06.413Z,47.70
2022-09-28T09:23:55.449Z,47.40
2022-09-28T09:26:41.512Z,47.00
2022-09-28T09:29:35.189Z,46.80
2022-09-28T09:32:35.766Z,46.70
2022-09-28T09:35:41.827Z,46.50
2022-09-28T09:38:49.272Z,46.40
2022-09-28T09:41:55.315Z,46.30
2022-09-28T09:44:52.543Z,46.20
2022-09-28T09:47:43.073Z,46.10
2022-09-28T09:50:30.294Z,46.00
2022-09-28T09:53:04.696Z,45.90
2022-09-28T09:55:42.163Z,46.00
2022-09-28T09:58:22.552Z,45.90
2022-09-28T10:00:52.732Z,45.70
2022-09-28T10:03:26.859Z,45.60
2022-09-28T10:06:02.039Z,45.50
2022-09-28T10:08:31.305Z,45.40
2022-09-28T10:11:21.821Z,45.20
2022-09-28T10:13:49.393Z,45.10
2022-09-28T10:16:18.681Z,45.10
2022-09-28T10:18:45.827Z,44.90
2022-09-28T10:21:15.137Z,44.80
2022-09-28T10:23:42.646Z,44.80
2022-09-28T10:26:25.087Z,44.70
2022-09-28T10:29:03.520Z,44.70
2022-09-28T10:31:45.417Z,44.80
2022-09-28T10:34:17.402Z,44.80
2022-09-28T10:37:03.609Z,44.80
2022-09-28T10:39:55.920Z,44.70
2022-09-28T10:42:27.360Z,44.40
2022-09-28T10:45:00.438Z,44.40
2022-09-28T10:47:32.558Z,44.40
2022-09-28T10:50:00.988Z,44.20
2022-09-28T10:52:40.979Z,44.20
2022-09-28T10:55:29.532Z,44.10
2022-09-28T10:57:56.838Z,43.90
2022-09-28T11:00:33.371Z,43.60
2022-09-28T11:03:02.424Z,44.00
2022-09-28T11:05:30.233Z,43.80
2022-09-28T11:08:05.780Z,43.60
2022-09-28T11:10:33.864Z,43.60
2022-09-28T11:13:01.069Z,43.70
2022-09-28T11:15:31.583Z,43.90
2022-09-28T11:18:26.618Z,43.90
2022-09-28T11:21:12.657Z,43.70
2022-09-28T11:23:42.244Z,43.70
2022-09-28T11:26:09.698Z,43.80
2022-09-28T11:28:41.355Z,44.00
2022-09-28T11:31:08.956Z,44.00
2022-09-28T11:33:42.264Z,43.80
2022-09-28T11:36:43.420Z,43.90
2022-09-28T11:39:33.495Z,44.00
2022-09-28T11:42:23.794Z,44.10
2022-09-28T11:45:02.058Z,43.90
2022-09-28T11:47:51.638Z,43.80
2022-09-28T11:50:35.781Z,44.10
2022-09-28T11:53:29.175Z,44.00
2022-09-28T11:56:34.155Z,43.90
2022-09-28T11:59:24.241Z,43.80
2022-09-28T12:01:58.207Z,43.80
2022-09-28T12:04:41.076Z,43.80
2022-09-28T12:07:18.012Z,43.70
2022-09-28T12:10:12.725Z,43.90
2022-09-28T12:12:56.988Z,43.90
2022-09-28T12:16:07.416Z,43.80
2022-09-28T12:18:53.641Z,43.80
2022-09-28T12:21:47.347Z,43.90
2022-09-28T12:24:27.130Z,43.80
2022-09-28T12:27:21.691Z,43.90
2022-09-28T12:30:20.037Z,43.90
2022-09-28T12:33:07.039Z,43.60
2022-09-28T12:36:13.797Z,43.90
2022-09-28T12:39:30.691Z,43.80
2022-09-28T12:42:27.735Z,44.00
2022-09-28T12:45:21.698Z,43.90
2022-09-28T12:48:09.106Z,43.80
2022-09-28T12:51:04.696Z,44.00
2022-09-28T12:54:00.078Z,43.90
2022-09-28T12:56:58.216Z,43.60
2022-09-28T12:59:38.174Z,43.60
2022-09-28T13:02:37.106Z,43.60
2022-09-28T13:05:40.620Z,43.70
2022-09-28T13:08:22.503Z,43.80
2022-09-28T13:11:19.575Z,43.90
2022-09-28T13:14:21.470Z,44.10
2022-09-28T13:17:11.376Z,44.10
2022-09-28T13:20:04.108Z,43.80
2022-09-28T13:22:56.185Z,44.10
2022-09-28T13:25:27.416Z,44.00
2022-09-28T13:28:01.450Z,44.00
2022-09-28T13:30:29.246Z,43.90
2022-09-28T13:32:59.713Z,44.20
2022-09-28T13:35:27.579Z,44.10
2022-09-28T13:38:29.415Z,44.20
2022-09-28T13:41:13.585Z,44.20
2022-09-28T13:44:21.475Z,44.30
2022-09-28T13:47:20.534Z,44.10
2022-09-28T13:50:10.860Z,44.20
2022-09-28T13:53:18.302Z,44.40
2022-09-28T13:56:25.024Z,44.40
2022-09-28T13:59:01.610Z,44.50
2022-09-28T14:01:42.827Z,44.30
2022-09-28T14:04:20.328Z,44.40
2022-09-28T14:06:55.806Z,44.40
2022-09-28T14:09:45.806Z,44.30
2022-09-28T14:12:45.985Z,44.20
2022-09-28T14:15:32.768Z,44.20
2022-09-28T14:18:32.805Z,44.30
2022-09-28T14:21:32.821Z,44.30
2022-09-28T14:24:32.130Z,44.70
2022-09-28T14:27:39.037Z,44.70
2022-09-28T14:30:28.178Z,44.70
2022-09-28T14:33:00.054Z,44.70
2022-09-28T14:35:41.890Z,44.90
2022-09-28T14:38:56.171Z,44.80
2022-09-28T14:41:34.693Z,44.80
2022-09-28T14:44:08.215Z,44.80
2022-09-28T14:46:39.126Z,44.90
2022-09-28T14:49:43.321Z,45.00
2022-09-28T14:52:12.587Z,45.10
2022-09-28T14:54:49.308Z,45.20
2022-09-28T14:57:20.495Z,45.30
2022-09-28T14:59:47.958Z,45.50
2022-09-28T15:02:23.633Z,45.70
2022-09-28T15:05:13.660Z,45.80
2022-09-28T15:07:48.182Z,46.10
2022-09-28T15:10:27.792Z,46.40
2022-09-28T15:12:57.686Z,46.50
2022-09-28T15:15:30.927Z,46.60
2022-09-28T15:18:23.377Z,47.20
2022-09-28T15:20:51.330Z,47.60
2022-09-28T15:23:39.631Z,47.70
2022-09-28T15:26:08.797Z,47.60
2022-09-28T15:28:37.253Z,47.80
2022-09-28T15:31:05.832Z,47.90
2022-09-28T15:33:54.490Z,48.00
2022-09-28T15:36:27.974Z,48.00
2022-09-28T15:39:02.945Z,48.10
2022-09-28T15:41:31.271Z,48.20
2022-09-28T15:44:29.509Z,48.20
2022-09-28T15:47:14.313Z,48.40
2022-09-28T15:50:03.837Z,48.40
2022-09-28T15:52:46.617Z,48.70
2022-09-28T15:55:22.837Z,48.80
2022-09-28T15:57:50.578Z,49.50
2022-09-28T16:00:27.740Z,49.00
2022-09-28T16:03:05.701Z,49.00
2022-09-28T16:05:49.298Z,49.30
2022-09-28T16:08:37.243Z,49.30
2022-09-28T16:11:27.957Z,50.60
2022-09-28T16:14:06.116Z,53.30
2022-09-28T16:16:46.693Z,53.70
2022-09-28T16:19:32.094Z,53.70
2022-09-28T16:22:02.284Z,54.00
2022-09-28T16:24:31.520Z,53.50
2022-09-28T16:27:07.790Z,52.60
2022-09-28T16:29:40.499Z,52.00
2022-09-28T16:32:34.177Z,51.80
2022-09-28T16:35:20.685Z,51.30
2022-09-28T16:37:56.552Z,51.00
2022-09-28T16:40:24.069Z,50.90
2022-09-28T16:42:51.774Z,50.90
2022-09-28T16:45:22.500Z,51.00
2022-09-28T16:47:52.949Z,51.50
2022-09-28T16:50:21.506Z,51.70
2022-09-28T16:53:21.495Z,52.20
2022-09-28T16:55:50.028Z,52.70
2022-09-28T16:58:17.133Z,52.70
2022-09-28T17:00:45.859Z,52.60
2022-09-28T17:03:14.826Z,52.50
2022-09-28T17:05:42.911Z,52.30
2022-09-28T17:08:14.860Z,52.20
2022-09-28T17:11:13.030Z,52.00
2022-09-28T17:13:41.106Z,51.80
2022-09-28T17:16:42.693Z,51.80
2022-09-28T17:19:24.103Z,51.80
2022-09-28T17:21:52.446Z,51.80
2022-09-28T17:24:19.734Z,51.80
2022-09-28T17:26:49.472Z,51.90
2022-09-28T17:29:16.713Z,51.90
2022-09-28T17:31:45.003Z,52.00
2022-09-28T17:34:13.265Z,52.00
2022-09-28T17:36:42.515Z,52.10
2022-09-28T17:39:15.025Z,52.10
2022-09-28T17:41:42.023Z,52.10
2022-09-28T17:44:09.122Z,52.10
2022-09-28T17:46:39.687Z,52.10
2022-09-28T17:49:10.352Z,52.10
2022-09-28T17:51:38.420Z,52.00
2022-09-28T17:54:07.015Z,52.00
2022-09-28T17:56:35.384Z,52.00
2022-09-28T17:59:13.375Z,52.00
2022-09-28T18:01:41.205Z,52.00
2022-09-28T18:04:19.075Z,52.00
2022-09-28T18:06:54.976Z,51.90
2022-09-28T18:09:25.349Z,52.50
2022-09-28T18:12:01.036Z,51.90
2022-09-28T18:14:28.657Z,51.90
2022-09-28T18:16:55.793Z,51.90
2022-09-28T18:19:22.853Z,51.90
2022-09-28T18:21:49.887Z,51.90
2022-09-28T18:24:16.997Z,51.90
2022-09-28T18:26:44.039Z,51.90
2022-09-28T18:29:11.057Z,51.90
2022-09-28T18:31:38.375Z,51.90
2022-09-28T18:34:06.080Z,52.40
2022-09-28T18:36:35.987Z,51.80
2022-09-28T18:39:03.655Z,51.90
2022-09-28T18:41:30.737Z,51.80
2022-09-28T18:44:00.934Z,51.80
2022-09-28T18:46:28.605Z,51.70
2022-09-28T18:48:56.132Z,51.70
2022-09-28T18:51:23.356Z,51.70
2022-09-28T18:53:50.471Z,51.70
2022-09-28T18:56:18.890Z,51.70
2022-09-28T18:58:47.627Z,51.70
2022-09-28T19:01:33.387Z,51.70
2022-09-28T19:04:01.845Z,51.70
2022-09-28T19:06:29.928Z,51.60
2022-09-28T19:08:57.276Z,51.60
2022-09-28T19:11:25.538Z,51.60
2022-09-28T19:13:54.255Z,51.50
2022-09-28T19:16:24.833Z,51.50
2022-09-28T19:18:53.778Z,51.50
2022-09-28T19:21:21.393Z,51.50
2022-09-28T19:23:53.713Z,51.50
2022-09-28T19:26:27.029Z,51.50
2022-09-28T19:28:57.960Z,51.50
2022-09-28T19:31:26.053Z,51.50
2022-09-28T19:33:53.052Z,51.50
2022-09-28T19:36:23.787Z,51.50
2022-09-28T19:38:52.675Z,51.50
2022-09-28T19:41:43.784Z,51.50
2022-09-28T19:44:27.861Z,51.50
2022-09-28T19:47:00.880Z,51.50
2022-09-28T19:49:33.140Z,51.50
2022-09-28T19:52:16.620Z,51.50
2022-09-28T19:55:01.076Z,51.50
2022-09-28T19:57:31.795Z,51.50
2022-09-28T20:00:03.124Z,51.50
2022-09-28T20:02:31.038Z,51.50
2022-09-28T20:04:58.122Z,51.50
2022-09-28T20:07:25.188Z,51.60
2022-09-28T20:09:52.333Z,51.50
2022-09-28T20:12:19.417Z,51.50
2022-09-28T20:14:46.525Z,51.60
2022-09-28T20:17:13.554Z,51.60
2022-09-28T20:19:40.569Z,51.60
2022-09-28T20:22:07.582Z,51.60
2022-09-28T20:24:34.653Z,51.60
2022-09-28T20:27:01.848Z,51.60
2022-09-28T20:29:31.704Z,51.70
2022-09-28T20:31:59.291Z,51.70
2022-09-28T20:34:26.438Z,51.70
2022-09-28T20:36:53.503Z,51.80
2022-09-28T20:39:20.823Z,51.70
2022-09-28T20:41:49.196Z,51.70
2022-09-28T20:44:16.370Z,51.80
2022-09-28T20:46:44.344Z,51.80
2022-09-28T20:49:11.587Z,51.70
2022-09-28T20:51:38.689Z,51.70
2022-09-28T20:54:05.837Z,51.70
2022-09-28T20:56:38.145Z,51.70
2022-09-28T20:59:08.073Z,51.70
2022-09-28T21:01:35.735Z,51.80
2022-09-28T21:04:04.857Z,51.70
2022-09-28T21:06:34.784Z,51.70
2022-09-28T21:09:02.203Z,51.60
2022-09-28T21:11:30.239Z,51.60
2022-09-28T21:13:59.888Z,51.60
2022-09-28T21:16:28.994Z,51.60
2022-09-28T21:18:56.168Z,51.60
2022-09-28T21:21:24.351Z,51.60
2022-09-28T21:23:58.834Z,51.60
2022-09-28T21:26:31.372Z,51.60
2022-09-28T21:29:00.586Z,51.60
2022-09-28T21:31:30.771Z,51.60
2022-09-28T21:33:58.587Z,51.50
2022-09-28T21:36:26.248Z,51.50
2022-09-28T21:38:55.210Z,51.50
2022-09-28T21:41:22.832Z,51.60
2022-09-28T21:43:50.092Z,51.50
2022-09-28T21:46:17.784Z,51.50
2022-09-28T21:48:45.144Z,51.50
2022-09-28T21:51:15.825Z,51.50
2022-09-28T21:53:43.131Z,51.60
2022-09-28T21:56:11.859Z,51.90
2022-09-28T21:58:39.039Z,51.60
2022-09-28T22:01:09.461Z,51.60
2022-09-28T22:03:37.253Z,51.60
2022-09-28T22:06:05.740Z,51.60
2022-09-28T22:08:33.563Z,51.60
2022-09-28T22:11:07.157Z,52.20
2022-09-28T22:13:36.764Z,51.70
2022-09-28T22:16:03.928Z,51.70
2022-09-28T22:18:32.164Z,51.60
2022-09-28T22:21:09.989Z,51.70
2022-09-28T22:23:37.972Z,51.70
2022-09-28T22:26:07.885Z,51.70
2022-09-28T22:28:35.553Z,51.70
2022-09-28T22:31:02.622Z,51.70
2022-09-28T22:33:29.697Z,51.80
2022-09-28T22:35:56.929Z,51.80
2022-09-28T22:38:25.055Z,51.90
2022-09-28T22:40:55.052Z,51.90
2022-09-28T22:43:23.596Z,52.00
2022-09-28T22:45:50.991Z,52.40
2022-09-28T22:48:18.705Z,52.00
2022-09-28T22:50:51.050Z,51.90
2022-09-28T22:53:19.138Z,51.90
2022-09-28T22:55:46.251Z,52.00
2022-09-28T22:58:13.637Z,51.90
2022-09-28T23:00:41.044Z,52.00
2022-09-28T23:03:08.124Z,51.90
2022-09-28T23:05:35.415Z,52.00
2022-09-28T23:08:03.324Z,51.90
2022-09-28T23:10:30.477Z,51.90
2022-09-28T23:12:57.732Z,51.90
2022-09-28T23:15:25.532Z,51.90
2022-09-28T23:17:53.046Z,51.90
2022-09-28T23:20:20.877Z,51.80
2022-09-28T23:22:48.937Z,51.80
2022-09-28T23:25:17.879Z,51.80
2022-09-28T23:27:46.805Z,51.80
2022-09-28T23:30:15.635Z,51.90
2022-09-28T23:32:42.789Z,51.80
2022-09-28T23:35:10.646Z,51.80
2022-09-28T23:37:38.038Z,51.80
2022-09-28T23:40:06.412Z,51.80
2022-09-28T23:42:35.056Z,51.80
2022-09-28T23:45:02.153Z,51.80
2022-09-28T23:47:29.388Z,51.80
2022-09-28T23:49:56.414Z,51.70
2022-09-28T23:52:23.450Z,51.70
2022-09-28T23:54:50.456Z,51.70
2022-09-28T23:57:17.467Z,51.80
2022-09-28T23:59:44.535Z,51.70
